Airport Name : Groton New London

Other Name : Groton

ICAO : KGON

IATA : GON

FAA : GON

Latitude : 41.330056

Longitude : -72.045139

Country : United States

Local Date and Time : 19 Sep 2020 02:05

 

TAF (Terminal Aerodrome Forecast)

KGON 190538Z 1906/2006 36016G24KT P6SM SKC FM192100 35013G20KT P6SM FEW250 FM192300 02010KT P6SM SCT250

 

METAR (METeorological Aerodrome Report)

KGON 190556Z AUTO 35013KT 10SM CLR 10/M01 A3014 RMK AO2 SLP207 T01001006 10150 20100 52016

KGON 190456Z AUTO 35014KT 10SM CLR 11/01 A3013 RMK AO2 SLP201 T01110006 402110111

KGON 190356Z AUTO 36013G25KT 10SM CLR 12/02 A3011 RMK AO2 PK WND 35028/0318 SLP196 T01170017

KGON 190256Z AUTO 36011KT 10SM CLR 13/04 A3009 RMK AO2 SLP190 T01280039 51028

To Charter a Jet Click here.